Clear, cloudless sky
Clear, cloudless sky
Clear, cloudless sky
Clear, cloudless sky
Clear, cloudless sky
Clear, cloudless sky
Clear, cloudless sky
(°F)
50°
51°
52°
51°
49°
47°
45°
(°F)
45°
46°
46°
46°
44°
42°
40°
SSW
SSW
SSW
SSW
S
E
ENE
(mph)
1-6
1-6
2-7
2-8
2-6
2-7
2-4
(in)
0
0
0
0
0
0
0
(%)
0
0
0
0
0
0
0

Sun elevation

/ 26.4°
sun-icon
UV 2
07:46
17:28
Waxing gibbous moon (123°)
12:32
04:04

METAR for Lugano (LSZA)

Time Conditions Temperature/
Dewpoint
Wind Visibility Weather Clouds Pressure Change Raw
VFR 48.2°F / 26.6°F variable 1kt >10km - Clouds and Visibility OK 1023 - LSZA 311050Z VRB01KT CAVOK 09/M03 Q1023
VFR 44.6°F / 28.4°F variable 1kt >10km - Clouds and Visibility OK 1024 - LSZA 311020Z VRB01KT CAVOK 07/M02 Q1024
VFR 41°F / 30.2°F variable 2kt >10km - Clouds and Visibility OK 1023 - LSZA 310950Z VRB02KT CAVOK 05/M01 Q1023
VFR 37.4°F / 28.4°F variable 1kt >10km - Clouds and Visibility OK 1023 - LSZA 310920Z VRB01KT CAVOK 03/M02 Q1023
VFR 37.4°F / 28.4°F variable 2kt >10km - Clouds and Visibility OK 1023 - LSZA 310850Z VRB02KT CAVOK 03/M02 Q1023
VFR 33.8°F / 28.4°F variable 1kt >10km - Clouds and Visibility OK 1023 - LSZA 310820Z VRB01KT CAVOK 01/M02 Q1023
VFR 30.2°F / 24.8°F variable 1kt >10km - Clear 1023 - LSZA 310750Z VRB01KT 9999 NSC M01/M04 Q1023
VFR 30.2°F / 23°F variable 1kt >10km - Clouds and Visibility OK 1023 - LSZA 310720Z VRB01KT CAVOK M01/M05 Q1023
VFR 30.2°F / 23°F variable 1kt >10km - Clouds and Visibility OK 1022 - LSZA 310650Z VRB01KT CAVOK M01/M05 Q1022
VFR 30.2°F / 23°F variable 1kt >10km - Clouds and Visibility OK 1022 - LSZA 310620Z AUTO VRB01KT CAVOK M01/M05 Q1022
VFR 32°F / 24.8°F variable 2kt >10km - Clouds and Visibility OK 1022 - LSZA 310550Z AUTO VRB02KT CAVOK M00/M04 Q1022
VFR 35.6°F / 24.8°F variable 1kt >10km - Clouds and Visibility OK 1021 - LSZA 310520Z AUTO VRB01KT CAVOK 02/M04 Q1021
VFR 37.4°F / 26.6°F variable 2kt >10km - Clear 1021 - LSZA 310450Z AUTO VRB02KT 9999 NSC 03/M03 Q1021
VFR 39.2°F / 26.6°F variable 2kt >10km - Clear 1021 - LSZA 310420Z AUTO VRB02KT 9999 NCD 04/M03 Q1021
VFR 41°F / 24.8°F 140º variable 100º to 190º 4kt >10km - Clouds and Visibility OK 1020 - LSZA 310350Z AUTO 14004KT 100V190 CAVOK 05/M04 Q1020
VFR 42.8°F / °F variable 2kt >10km - Clouds and Visibility OK 1020 - LSZA 310320Z AUTO VRB02KT CAVOK 06/M10 Q1020
VFR 44.6°F / 15.8°F 10º variable 350º to 070º 7kt >10km - Clouds and Visibility OK 1019 - LSZA 310250Z AUTO 01007KT 350V070 CAVOK 07/M09 Q1019
VFR 44.6°F / 15.8°F 20º variable 360º to 060º 5kt >10km - Clear 1019 - LSZA 310220Z AUTO 02005KT 360V060 9999 NSC 07/M09 Q1019
VFR 46.4°F / °F 10º 8kt >10km - Clear 1019 - LSZA 310150Z AUTO 01008KT 9999 NCD 08/M10 Q1019
VFR 46.4°F / 15.8°F 30º 6kt >10km - Clouds and Visibility OK 1019 - LSZA 310120Z AUTO 03006KT CAVOK 08/M09 Q1019
VFR 46.4°F / 15.8°F 10º 8kt >10km - Clouds and Visibility OK 1018 - LSZA 310050Z AUTO 01008KT CAVOK 08/M09 Q1018
VFR 51.8°F / °F 40º variable 010º to 070º 9kt >10km - Clouds and Visibility OK 1018 - LSZA 310020Z AUTO 04009KT 010V070 CAVOK 11/M10 Q1018
VFR 50°F / °F 20º variable 330º to 090º 5kt >10km - Clouds and Visibility OK 1018 - LSZA 302350Z AUTO 02005KT 330V090 CAVOK 10/M11 Q1018
VFR 50°F / °F variable 2kt >10km - Clouds and Visibility OK 1017 - LSZA 302320Z AUTO VRB02KT CAVOK 10/M10 Q1017

VFR

48.2°F / 26.6°F

[More]
Wind variable 1kt
Visibility >10km
Weather -
Clouds Clouds and Visibility OK
Pressure 1023
Change -
Raw LSZA 311050Z VRB01KT CAVOK 09/M03 Q1023

VFR

44.6°F / 28.4°F

[More]
Wind variable 1kt
Visibility >10km
Weather -
Clouds Clouds and Visibility OK
Pressure 1024
Change -
Raw LSZA 311020Z VRB01KT CAVOK 07/M02 Q1024

VFR

41°F / 30.2°F

[More]
Wind variable 2kt
Visibility >10km
Weather -
Clouds Clouds and Visibility OK
Pressure 1023
Change -
Raw LSZA 310950Z VRB02KT CAVOK 05/M01 Q1023

VFR

37.4°F / 28.4°F

[More]
Wind variable 1kt
Visibility >10km
Weather -
Clouds Clouds and Visibility OK
Pressure 1023
Change -
Raw LSZA 310920Z VRB01KT CAVOK 03/M02 Q1023

VFR

37.4°F / 28.4°F

[More]
Wind variable 2kt
Visibility >10km
Weather -
Clouds Clouds and Visibility OK
Pressure 1023
Change -
Raw LSZA 310850Z VRB02KT CAVOK 03/M02 Q1023

VFR

33.8°F / 28.4°F

[More]
Wind variable 1kt
Visibility >10km
Weather -
Clouds Clouds and Visibility OK
Pressure 1023
Change -
Raw LSZA 310820Z VRB01KT CAVOK 01/M02 Q1023

VFR

30.2°F / 24.8°F

[More]
Wind variable 1kt
Visibility >10km
Weather -
Clouds Clear
Pressure 1023
Change -
Raw LSZA 310750Z VRB01KT 9999 NSC M01/M04 Q1023

VFR

30.2°F / 23°F

[More]
Wind variable 1kt
Visibility >10km
Weather -
Clouds Clouds and Visibility OK
Pressure 1023
Change -
Raw LSZA 310720Z VRB01KT CAVOK M01/M05 Q1023

VFR

30.2°F / 23°F

[More]
Wind variable 1kt
Visibility >10km
Weather -
Clouds Clouds and Visibility OK
Pressure 1022
Change -
Raw LSZA 310650Z VRB01KT CAVOK M01/M05 Q1022

VFR

30.2°F / 23°F

[More]
Wind variable 1kt
Visibility >10km
Weather -
Clouds Clouds and Visibility OK
Pressure 1022
Change -
Raw LSZA 310620Z AUTO VRB01KT CAVOK M01/M05 Q1022

VFR

32°F / 24.8°F

[More]
Wind variable 2kt
Visibility >10km
Weather -
Clouds Clouds and Visibility OK
Pressure 1022
Change -
Raw LSZA 310550Z AUTO VRB02KT CAVOK M00/M04 Q1022

VFR

35.6°F / 24.8°F

[More]
Wind variable 1kt
Visibility >10km
Weather -
Clouds Clouds and Visibility OK
Pressure 1021
Change -
Raw LSZA 310520Z AUTO VRB01KT CAVOK 02/M04 Q1021

VFR

37.4°F / 26.6°F

[More]
Wind variable 2kt
Visibility >10km
Weather -
Clouds Clear
Pressure 1021
Change -
Raw LSZA 310450Z AUTO VRB02KT 9999 NSC 03/M03 Q1021

VFR

39.2°F / 26.6°F

[More]
Wind variable 2kt
Visibility >10km
Weather -
Clouds Clear
Pressure 1021
Change -
Raw LSZA 310420Z AUTO VRB02KT 9999 NCD 04/M03 Q1021

VFR

41°F / 24.8°F

[More]
Wind 140º variable 100º to 190º 4kt
Visibility >10km
Weather -
Clouds Clouds and Visibility OK
Pressure 1020
Change -
Raw LSZA 310350Z AUTO 14004KT 100V190 CAVOK 05/M04 Q1020

VFR

42.8°F / °F

[More]
Wind variable 2kt
Visibility >10km
Weather -
Clouds Clouds and Visibility OK
Pressure 1020
Change -
Raw LSZA 310320Z AUTO VRB02KT CAVOK 06/M10 Q1020

VFR

44.6°F / 15.8°F

[More]
Wind 10º variable 350º to 070º 7kt
Visibility >10km
Weather -
Clouds Clouds and Visibility OK
Pressure 1019
Change -
Raw LSZA 310250Z AUTO 01007KT 350V070 CAVOK 07/M09 Q1019

VFR

44.6°F / 15.8°F

[More]
Wind 20º variable 360º to 060º 5kt
Visibility >10km
Weather -
Clouds Clear
Pressure 1019
Change -
Raw LSZA 310220Z AUTO 02005KT 360V060 9999 NSC 07/M09 Q1019

VFR

46.4°F / °F

[More]
Wind 10º 8kt
Visibility >10km
Weather -
Clouds Clear
Pressure 1019
Change -
Raw LSZA 310150Z AUTO 01008KT 9999 NCD 08/M10 Q1019

VFR

46.4°F / 15.8°F

[More]
Wind 30º 6kt
Visibility >10km
Weather -
Clouds Clouds and Visibility OK
Pressure 1019
Change -
Raw LSZA 310120Z AUTO 03006KT CAVOK 08/M09 Q1019

VFR

46.4°F / 15.8°F

[More]
Wind 10º 8kt
Visibility >10km
Weather -
Clouds Clouds and Visibility OK
Pressure 1018
Change -
Raw LSZA 310050Z AUTO 01008KT CAVOK 08/M09 Q1018

VFR

51.8°F / °F

[More]
Wind 40º variable 010º to 070º 9kt
Visibility >10km
Weather -
Clouds Clouds and Visibility OK
Pressure 1018
Change -
Raw LSZA 310020Z AUTO 04009KT 010V070 CAVOK 11/M10 Q1018

VFR

50°F / °F

[More]
Wind 20º variable 330º to 090º 5kt
Visibility >10km
Weather -
Clouds Clouds and Visibility OK
Pressure 1018
Change -
Raw LSZA 302350Z AUTO 02005KT 330V090 CAVOK 10/M11 Q1018

VFR

50°F / °F

[More]
Wind variable 2kt
Visibility >10km
Weather -
Clouds Clouds and Visibility OK
Pressure 1017
Change -
Raw LSZA 302320Z AUTO VRB02KT CAVOK 10/M10 Q1017

TAF for Lugano (LSZA)

From till


From till Wind variable 2kt. Visibility 10km or more. Nil Significant Cloud.

Raw: TAF LSZA 310825Z 3109/3118 VRB02KT CAVOK

rainNOW: Rain nowcast for Lugano and surroundings (25km radius)

0.0 inch
0.0 inch
0.0 inch
0.0 inch
0.0 inch
0.0 inch
0.0 inch
0.0 inch
0.0 inch
0.0 inch
0.0 inch
0.0 inch

Radar and precipitation nowcast for Lugano

Drizzle
Light
Moderate
Heavy
Very Heavy
Hail

The location marker is placed on Lugano. This animation shows the precipitation radar for the selected time range, as well as a 2h forecast. Drizzle or light snow fall might be invisible for the radar. Precipitation intensity is colour coded, ranging from turquoise to red.

Current satellite and rain images for Lugano, Switzerland

The location marker is placed on Lugano. [More]

The real-time satellite image combines visible light during daytime with infrared radiation during nighttime. At night, the image is not dark as infrared radiation can detect temperature differences. Unfortunately, low clouds and fog are difficult to distinguish from ground temperatures and thus can be almost invisible during the night. Meteosat satellite images for Europe are updated in real-time every 5 minutes. GOES-16/GOES-17 (North & South America) and Himawari (Asia) images update every 10 minutes.

Precipitation is estimated from radar and satellites. Precipitation estimates from satellites are less accurate at night than during daytime. Orange crosses mark places where lightning was detected (over Europe).

Copyright 2023 EUMETSAT / meteoblue. Lightning data provided by nowcast.

Back to top